createdAt,value
2023-03-21T00:00:04.138Z,1.20
2023-03-21T00:04:04.169Z,1.66
2023-03-21T00:08:04.049Z,1.34
2023-03-21T00:12:04.017Z,1.48
2023-03-21T00:16:07.149Z,1.20
2023-03-21T00:20:04.950Z,1.17
2023-03-21T00:24:03.908Z,1.39
2023-03-21T00:28:08.222Z,1.39
2023-03-21T00:32:03.813Z,1.43
2023-03-21T00:36:05.712Z,1.49
2023-03-21T00:40:04.331Z,1.28
2023-03-21T00:44:03.710Z,1.33
2023-03-21T00:48:03.817Z,1.51
2023-03-21T00:52:24.729Z,1.26
2023-03-21T00:56:04.604Z,1.53
2023-03-21T01:00:03.564Z,1.44
2023-03-21T01:04:03.552Z,0.96
2023-03-21T01:08:07.924Z,1.40
2023-03-21T01:12:04.452Z,1.07
2023-03-21T01:16:03.454Z,1.13
2023-03-21T01:20:03.369Z,1.29
2023-03-21T01:24:03.326Z,1.24
2023-03-21T01:28:03.291Z,1.06
2023-03-21T01:32:03.266Z,1.22
2023-03-21T01:36:12.794Z,1.04
2023-03-21T01:40:04.175Z,0.89
2023-03-21T01:44:03.143Z,1.20
2023-03-21T01:48:03.173Z,1.18
2023-03-21T01:52:11.510Z,1.51
2023-03-21T01:56:04.052Z,1.18
2023-03-21T02:00:03.002Z,1.30
2023-03-21T02:04:03.011Z,1.41
2023-03-21T02:08:02.919Z,1.23
2023-03-21T02:12:02.893Z,1.20
2023-03-21T02:16:02.848Z,1.18
2023-03-21T02:20:02.819Z,1.43
2023-03-21T02:24:02.782Z,1.33
2023-03-21T02:28:02.820Z,1.27
2023-03-21T02:32:15.117Z,1.29
2023-03-21T02:36:13.662Z,1.14
2023-03-21T02:40:03.785Z,0.98
2023-03-21T02:44:02.750Z,1.03
2023-03-21T02:48:03.038Z,1.13
2023-03-21T02:52:13.615Z,1.01
2023-03-21T02:56:03.632Z,1.15
2023-03-21T03:00:14.192Z,0.93
2023-03-21T03:04:03.607Z,0.88
2023-03-21T03:08:02.522Z,1.24
2023-03-21T03:12:02.487Z,0.98
2023-03-21T03:16:02.549Z,0.89
2023-03-21T03:20:15.247Z,0.95
2023-03-21T03:24:03.386Z,1.02
2023-03-21T03:28:02.361Z,1.18
2023-03-21T03:32:02.347Z,1.10
2023-03-21T03:36:06.409Z,1.25
2023-03-21T03:40:02.235Z,1.02
2023-03-21T03:44:02.189Z,1.26
2023-03-21T03:48:02.172Z,1.17
2023-03-21T03:52:02.119Z,1.29
2023-03-21T03:56:02.082Z,1.26
2023-03-21T04:00:02.031Z,1.27
2023-03-21T04:04:12.583Z,0.97
2023-03-21T04:08:02.976Z,0.92
2023-03-21T04:12:01.933Z,0.99
2023-03-21T04:16:01.922Z,0.83
2023-03-21T04:20:11.376Z,0.93
2023-03-21T04:24:02.833Z,0.98
2023-03-21T04:28:01.790Z,0.98
2023-03-21T04:32:01.824Z,0.80
2023-03-21T04:36:01.740Z,0.99
2023-03-21T04:40:01.695Z,0.81
2023-03-21T04:44:01.743Z,0.95
2023-03-21T04:48:01.913Z,0.99
2023-03-21T04:52:01.904Z,0.92
2023-03-21T04:56:01.955Z,0.98
2023-03-21T05:00:02.077Z,1.11
2023-03-21T05:04:02.325Z,1.00
2023-03-21T05:08:02.201Z,0.89
2023-03-21T05:12:02.263Z,1.05
2023-03-21T05:16:02.312Z,1.04
2023-03-21T05:20:02.395Z,1.11
2023-03-21T05:24:02.464Z,1.22
2023-03-21T05:28:02.516Z,1.27
2023-03-21T05:32:02.582Z,1.33
2023-03-21T05:36:02.687Z,1.28
2023-03-21T05:40:02.707Z,1.27
2023-03-21T05:44:02.790Z,1.48
2023-03-21T05:48:02.902Z,1.61
2023-03-21T05:52:02.893Z,1.58
2023-03-21T05:56:02.919Z,1.49
2023-03-21T06:00:03.013Z,1.26
2023-03-21T06:04:03.082Z,1.32
2023-03-21T06:08:03.182Z,1.15
2023-03-21T06:12:03.633Z,1.53
2023-03-21T06:16:03.206Z,1.38
2023-03-21T06:20:03.609Z,1.45
2023-03-21T06:24:03.223Z,1.26
2023-03-21T06:28:03.617Z,1.28
2023-03-21T06:32:03.271Z,1.64
2023-03-21T06:36:03.272Z,2.06
2023-03-21T06:40:03.611Z,1.76
2023-03-21T06:44:03.612Z,2.13
2023-03-21T06:48:03.653Z,2.27
2023-03-21T06:52:03.281Z,2.01
2023-03-21T06:56:03.264Z,2.31
2023-03-21T07:00:03.208Z,1.68
2023-03-21T07:04:03.612Z,1.88
2023-03-21T07:08:03.140Z,1.93
2023-03-21T07:12:03.149Z,2.02
2023-03-21T07:16:03.127Z,2.00
2023-03-21T07:20:03.045Z,1.58
2023-03-21T07:24:03.032Z,2.19
2023-03-21T07:28:03.000Z,1.72
2023-03-21T07:32:02.979Z,2.09
2023-03-21T07:36:03.168Z,1.90
2023-03-21T07:40:03.138Z,2.29
2023-03-21T07:44:02.849Z,2.92
2023-03-21T07:48:03.188Z,4.11
2023-03-21T07:52:04.744Z,4.84
2023-03-21T07:56:03.247Z,5.52
2023-03-21T08:00:03.325Z,4.74
2023-03-21T08:04:03.622Z,4.11
2023-03-21T08:08:03.658Z,3.46
2023-03-21T08:12:03.749Z,3.43
2023-03-21T08:16:03.934Z,3.16
2023-03-21T08:20:04.039Z,3.04
2023-03-21T08:24:04.086Z,2.94
2023-03-21T08:28:04.150Z,3.32
2023-03-21T08:32:04.156Z,2.76
2023-03-21T08:36:04.216Z,2.91
2023-03-21T08:40:04.693Z,2.22
2023-03-21T08:44:04.627Z,2.73
2023-03-21T08:48:04.678Z,2.38
2023-03-21T08:52:04.699Z,2.27
2023-03-21T08:56:04.797Z,2.61
2023-03-21T09:00:05.003Z,1.94
2023-03-21T09:04:05.030Z,2.27
2023-03-21T09:08:04.924Z,2.59
2023-03-21T09:12:05.129Z,1.78
2023-03-21T09:16:04.865Z,1.95
2023-03-21T09:20:04.819Z,1.89
2023-03-21T09:24:05.157Z,2.02
2023-03-21T09:28:04.735Z,2.03
2023-03-21T09:32:04.699Z,2.52
2023-03-21T09:36:04.682Z,2.98
2023-03-21T09:40:04.602Z,2.15
2023-03-21T09:44:04.644Z,2.97
2023-03-21T09:48:04.571Z,2.98
2023-03-21T09:52:04.507Z,3.31
2023-03-21T09:56:04.513Z,4.45
2023-03-21T10:00:04.428Z,5.34
2023-03-21T10:04:04.724Z,5.15
2023-03-21T10:08:04.416Z,4.46
2023-03-21T10:12:04.416Z,5.87
2023-03-21T10:16:04.686Z,4.95
2023-03-21T10:20:04.636Z,5.13
2023-03-21T10:24:04.651Z,3.27
2023-03-21T10:28:04.669Z,3.10
2023-03-21T10:32:05.294Z,3.25
2023-03-21T10:36:04.860Z,2.17
2023-03-21T10:40:05.154Z,2.38
2023-03-21T10:44:05.025Z,2.00
2023-03-21T10:48:05.411Z,1.76
2023-03-21T10:52:04.936Z,1.92
2023-03-21T10:56:04.897Z,2.35
2023-03-21T11:00:04.880Z,2.54
2023-03-21T11:04:04.859Z,1.91
2023-03-21T11:08:04.852Z,2.15
2023-03-21T11:12:04.827Z,1.72
2023-03-21T11:16:04.761Z,1.42
2023-03-21T11:20:04.702Z,1.50
2023-03-21T11:24:04.661Z,2.05
2023-03-21T11:28:04.605Z,2.06
2023-03-21T11:32:04.568Z,2.27
2023-03-21T11:36:04.576Z,2.08
2023-03-21T11:40:04.529Z,2.61
2023-03-21T11:44:04.508Z,2.23
2023-03-21T11:48:04.555Z,5.56
2023-03-21T11:52:04.430Z,2.05
2023-03-21T11:56:04.403Z,2.12
2023-03-21T12:00:04.327Z,1.97
2023-03-21T12:04:04.464Z,1.76
2023-03-21T12:08:04.280Z,1.90
2023-03-21T12:12:04.250Z,2.27
2023-03-21T12:16:04.731Z,2.15
2023-03-21T12:20:04.149Z,1.20
2023-03-21T12:24:04.175Z,1.18
2023-03-21T12:28:04.158Z,1.39
2023-03-21T12:32:04.129Z,0.97
2023-03-21T12:36:04.044Z,0.47
2023-03-21T12:40:04.024Z,0.58
2023-03-21T12:44:04.209Z,0.38
2023-03-21T12:48:04.457Z,0.54
2023-03-21T12:52:04.538Z,0.87
2023-03-21T12:56:04.520Z,0.67
2023-03-21T13:00:04.486Z,0.83
2023-03-21T13:04:04.800Z,0.75
2023-03-21T13:08:04.681Z,0.94
2023-03-21T13:12:04.395Z,0.86
2023-03-21T13:16:04.373Z,1.07
2023-03-21T13:20:04.757Z,1.04
2023-03-21T13:24:04.257Z,0.96
2023-03-21T13:28:04.248Z,0.93
2023-03-21T13:32:04.195Z,1.06
2023-03-21T13:36:04.318Z,0.89
2023-03-21T13:40:04.121Z,0.74
2023-03-21T13:44:04.105Z,0.75
2023-03-21T13:48:04.292Z,0.75
2023-03-21T13:52:04.390Z,0.77
2023-03-21T13:56:04.317Z,0.64
2023-03-21T14:00:04.220Z,0.84
2023-03-21T14:04:04.200Z,1.02
2023-03-21T14:08:13.622Z,0.61
2023-03-21T14:12:07.893Z,0.71
2023-03-21T14:16:06.588Z,0.80
2023-03-21T14:20:04.309Z,0.59
2023-03-21T14:24:04.345Z,0.71
2023-03-21T14:28:04.227Z,0.94
2023-03-21T14:32:04.200Z,0.60
2023-03-21T14:36:04.188Z,0.57
2023-03-21T14:40:04.180Z,0.44
2023-03-21T14:44:04.197Z,0.83
2023-03-21T14:48:04.289Z,0.44
2023-03-21T14:52:06.544Z,0.72
2023-03-21T14:56:04.072Z,0.68
2023-03-21T15:00:03.937Z,0.57
2023-03-21T15:04:04.194Z,0.81
2023-03-21T15:08:03.876Z,0.53
2023-03-21T15:12:03.922Z,0.59
2023-03-21T15:16:03.814Z,0.78
2023-03-21T15:20:03.762Z,0.77
2023-03-21T15:24:03.765Z,0.64
2023-03-21T15:28:05.392Z,0.58
2023-03-21T15:32:03.662Z,0.61
2023-03-21T15:36:03.689Z,0.61
2023-03-21T15:40:03.597Z,0.70
2023-03-21T15:44:03.642Z,0.55
2023-03-21T15:48:03.601Z,0.74
2023-03-21T15:52:03.681Z,0.82
2023-03-21T15:56:03.809Z,0.89
2023-03-21T16:00:04.118Z,0.67
2023-03-21T16:04:04.059Z,0.61
2023-03-21T16:08:04.212Z,0.70
2023-03-21T16:12:04.340Z,0.84
2023-03-21T16:16:04.579Z,0.84
2023-03-21T16:20:04.711Z,1.08
2023-03-21T16:24:04.857Z,0.79
2023-03-21T16:28:05.021Z,1.08
2023-03-21T16:32:05.265Z,1.07
2023-03-21T16:36:05.420Z,0.79
2023-03-21T16:40:05.609Z,0.85
2023-03-21T16:44:05.774Z,0.88
2023-03-21T16:48:06.035Z,0.85
2023-03-21T16:52:06.140Z,1.16
2023-03-21T16:56:06.334Z,0.97
2023-03-21T17:00:06.525Z,0.85
2023-03-21T17:04:06.743Z,0.88
2023-03-21T17:08:06.926Z,0.96
2023-03-21T17:12:07.177Z,1.01
2023-03-21T17:16:07.360Z,0.84
2023-03-21T17:20:07.716Z,0.82
2023-03-21T17:24:07.532Z,1.09
2023-03-21T17:28:07.492Z,1.01
2023-03-21T17:32:07.454Z,0.88
2023-03-21T17:36:07.404Z,0.94
2023-03-21T17:40:07.397Z,0.87
2023-03-21T17:44:07.400Z,0.92
2023-03-21T17:48:07.348Z,0.99
2023-03-21T17:52:07.268Z,1.28
2023-03-21T17:56:07.227Z,0.71
2023-03-21T18:00:07.241Z,0.90
2023-03-21T18:04:07.483Z,0.89
2023-03-21T18:08:11.246Z,0.82
2023-03-21T18:12:07.665Z,0.86
2023-03-21T18:16:07.656Z,1.14
2023-03-21T18:20:09.933Z,1.02
2023-03-21T18:24:07.604Z,0.90
2023-03-21T18:28:12.024Z,1.07
2023-03-21T18:32:08.561Z,1.09
2023-03-21T18:36:08.171Z,1.01
2023-03-21T18:40:07.581Z,0.94
2023-03-21T18:44:15.219Z,0.89
2023-03-21T18:48:08.814Z,1.09
2023-03-21T18:52:07.701Z,0.88
2023-03-21T18:56:10.090Z,1.16
2023-03-21T19:00:07.857Z,1.03
2023-03-21T19:04:29.701Z,1.02
2023-03-21T19:08:08.811Z,1.26
2023-03-21T19:12:07.777Z,1.36
2023-03-21T19:16:11.089Z,1.80
2023-03-21T19:20:07.935Z,2.10
2023-03-21T19:24:25.170Z,2.63
2023-03-21T19:28:08.851Z,3.13
2023-03-21T19:32:07.865Z,2.93
2023-03-21T19:36:17.955Z,2.29
2023-03-21T19:40:08.769Z,2.40
2023-03-21T19:44:07.757Z,2.59
2023-03-21T19:48:07.768Z,2.81
2023-03-21T19:52:07.729Z,2.59
2023-03-21T19:56:20.328Z,2.97
2023-03-21T20:00:08.640Z,2.37
2023-03-21T20:04:07.624Z,2.17
2023-03-21T20:08:10.688Z,2.60
2023-03-21T20:12:07.555Z,2.11
2023-03-21T20:16:10.725Z,2.48
2023-03-21T20:20:07.506Z,1.91
2023-03-21T20:24:07.441Z,2.04
2023-03-21T20:28:20.106Z,2.12
2023-03-21T20:32:08.379Z,1.93
2023-03-21T20:36:37.732Z,1.66
2023-03-21T20:40:08.318Z,1.91
2023-03-21T20:44:44.870Z,1.97
2023-03-21T20:48:08.296Z,1.90
2023-03-21T20:56:08.168Z,1.60
2023-03-21T21:00:07.134Z,1.83
2023-03-21T21:04:07.338Z,1.57
2023-03-21T21:08:07.524Z,1.38
2023-03-21T21:12:08.724Z,1.51
2023-03-21T21:16:07.521Z,1.76
2023-03-21T21:20:07.403Z,1.69
2023-03-21T21:24:07.817Z,1.19
2023-03-21T21:28:07.337Z,1.13
2023-03-21T21:32:07.298Z,1.55
2023-03-21T21:36:07.263Z,1.31
2023-03-21T21:40:07.222Z,1.67
2023-03-21T21:44:07.201Z,1.63
2023-03-21T21:48:07.166Z,1.68
2023-03-21T21:52:07.096Z,1.48
2023-03-21T21:56:07.057Z,1.35
2023-03-21T22:00:07.137Z,1.56
2023-03-21T22:04:06.996Z,1.64
2023-03-21T22:08:08.505Z,1.09
2023-03-21T22:12:06.920Z,1.39
2023-03-21T22:16:06.912Z,1.26
2023-03-21T22:20:06.940Z,1.06
2023-03-21T22:24:06.801Z,1.00
2023-03-21T22:28:06.755Z,1.27
2023-03-21T22:32:06.823Z,1.26
2023-03-21T22:36:06.681Z,1.38
2023-03-21T22:40:06.648Z,1.08
2023-03-21T22:44:06.638Z,1.48
2023-03-21T22:48:06.642Z,1.42
2023-03-21T22:52:06.634Z,1.23
2023-03-21T22:56:06.739Z,1.19
2023-03-21T23:00:06.850Z,1.15
2023-03-21T23:04:07.025Z,1.37
2023-03-21T23:08:07.117Z,0.97
2023-03-21T23:12:07.218Z,1.14
2023-03-21T23:16:07.411Z,1.12
2023-03-21T23:20:07.492Z,1.13
2023-03-21T23:24:07.673Z,0.88
2023-03-21T23:28:07.838Z,1.27
2023-03-21T23:32:08.044Z,1.00
2023-03-21T23:36:08.115Z,1.00
2023-03-21T23:40:08.252Z,1.02
2023-03-21T23:44:08.346Z,1.04
2023-03-21T23:48:08.460Z,1.38
2023-03-21T23:52:08.463Z,1.11
2023-03-21T23:56:08.608Z,1.01
